createdAt,value
2023-05-11T00:00:20.335Z,7.17
2023-05-11T00:02:49.094Z,7.77
2023-05-11T00:05:19.450Z,7.80
2023-05-11T00:07:50.774Z,8.00
2023-05-11T00:10:19.589Z,8.03
2023-05-11T00:12:48.470Z,7.30
2023-05-11T00:15:17.100Z,8.20
2023-05-11T00:17:45.848Z,7.30
2023-05-11T00:20:14.474Z,7.07
2023-05-11T00:22:45.006Z,6.70
2023-05-11T00:25:13.762Z,7.67
2023-05-11T00:27:45.923Z,7.20
2023-05-11T00:30:16.219Z,7.30
2023-05-11T00:32:45.425Z,7.23
2023-05-11T00:35:14.101Z,7.87
2023-05-11T00:37:44.063Z,8.00
2023-05-11T00:40:13.048Z,8.00
2023-05-11T00:42:41.583Z,8.30
2023-05-11T00:45:11.358Z,8.53
2023-05-11T00:47:40.000Z,7.00
2023-05-11T00:50:09.782Z,7.90
2023-05-11T00:52:38.332Z,7.73
2023-05-11T00:55:09.373Z,7.50
2023-05-11T00:57:37.996Z,7.20
2023-05-11T01:00:08.179Z,7.60
2023-05-11T01:02:36.878Z,8.30
2023-05-11T01:05:05.784Z,8.40
2023-05-11T01:07:35.974Z,7.70
2023-05-11T01:10:10.290Z,8.60
2023-05-11T01:12:41.731Z,10.10
2023-05-11T01:15:11.900Z,8.10
2023-05-11T01:17:45.154Z,9.37
2023-05-11T01:20:17.010Z,8.00
2023-05-11T01:22:57.907Z,8.73
2023-05-11T01:25:38.264Z,9.33
2023-05-11T01:28:16.807Z,7.70
2023-05-11T01:30:47.960Z,9.77
2023-05-11T01:33:16.632Z,8.30
2023-05-11T01:35:47.118Z,8.40
2023-05-11T01:38:16.513Z,8.10
2023-05-11T01:40:45.135Z,9.10
2023-05-11T01:43:15.254Z,10.43
2023-05-11T01:45:48.518Z,8.17
2023-05-11T01:48:20.234Z,8.67
2023-05-11T01:50:48.902Z,8.60
2023-05-11T01:53:17.634Z,8.63
2023-05-11T01:55:46.766Z,8.40
2023-05-11T01:58:16.400Z,8.90
2023-05-11T02:00:46.629Z,8.80
2023-05-11T02:03:15.291Z,8.63
2023-05-11T02:05:44.160Z,8.43
2023-05-11T02:08:12.733Z,9.90
2023-05-11T02:10:41.426Z,10.10
2023-05-11T02:13:10.877Z,9.80
2023-05-11T02:15:41.424Z,9.20
2023-05-11T02:18:12.541Z,8.77
2023-05-11T02:20:41.651Z,8.83
2023-05-11T02:23:10.316Z,10.00
2023-05-11T02:25:38.956Z,9.17
2023-05-11T02:28:07.594Z,9.47
2023-05-11T02:30:39.782Z,9.03
2023-05-11T02:33:10.094Z,9.03
2023-05-11T02:35:40.394Z,9.60
2023-05-11T02:38:08.970Z,9.50
2023-05-11T02:40:40.680Z,9.63
2023-05-11T02:43:10.218Z,9.03
2023-05-11T02:45:38.815Z,8.50
2023-05-11T02:48:10.320Z,10.70
2023-05-11T02:50:40.440Z,9.50
2023-05-11T02:53:12.970Z,9.80
2023-05-11T02:55:41.689Z,9.50
2023-05-11T02:58:10.392Z,9.40
2023-05-11T03:00:39.791Z,9.47
2023-05-11T03:03:10.040Z,8.30
2023-05-11T03:05:38.670Z,9.70
2023-05-11T03:08:07.335Z,10.10
2023-05-11T03:10:36.237Z,9.20
2023-05-11T03:13:05.344Z,10.10
2023-05-11T03:15:33.935Z,9.80
2023-05-11T03:18:02.545Z,9.27
2023-05-11T03:20:32.589Z,9.10
2023-05-11T03:23:01.240Z,9.70
2023-05-11T03:25:30.087Z,9.03
2023-05-11T03:27:58.618Z,9.53
2023-05-11T03:30:27.263Z,9.37
2023-05-11T03:32:55.994Z,9.47
2023-05-11T03:35:25.195Z,8.63
2023-05-11T03:37:55.178Z,9.63
2023-05-11T03:40:24.069Z,10.30
2023-05-11T03:42:52.760Z,9.93
2023-05-11T03:45:21.669Z,9.60
2023-05-11T03:47:50.346Z,8.90
2023-05-11T03:50:19.254Z,9.90
2023-05-11T03:52:48.092Z,10.07
2023-05-11T03:55:18.089Z,9.73
2023-05-11T03:57:47.080Z,11.30
2023-05-11T04:00:16.547Z,9.53
2023-05-11T04:02:45.856Z,10.67
2023-05-11T04:05:15.186Z,9.70
2023-05-11T04:07:43.828Z,9.60
2023-05-11T04:10:12.893Z,8.70
2023-05-11T04:12:42.832Z,9.63
2023-05-11T04:15:12.056Z,9.43
2023-05-11T04:17:40.723Z,9.33
2023-05-11T04:20:10.181Z,8.43
2023-05-11T04:22:38.792Z,8.20
2023-05-11T04:25:08.072Z,10.53
2023-05-11T04:27:36.729Z,9.23
2023-05-11T04:30:07.802Z,9.93
2023-05-11T04:32:36.496Z,9.37
2023-05-11T04:35:05.419Z,9.07
2023-05-11T04:37:34.005Z,9.57
2023-05-11T04:40:04.210Z,9.50
2023-05-11T04:42:32.818Z,9.10
2023-05-11T04:45:01.461Z,9.30
2023-05-11T04:47:31.493Z,9.73
2023-05-11T04:50:00.521Z,9.23
2023-05-11T04:52:29.185Z,9.50
2023-05-11T04:54:57.808Z,9.27
2023-05-11T04:57:26.452Z,10.20
2023-05-11T04:59:55.174Z,8.50
2023-05-11T05:02:23.906Z,9.43
2023-05-11T05:04:53.863Z,8.90
2023-05-11T05:07:22.462Z,8.10
2023-05-11T05:09:51.056Z,8.03
2023-05-11T05:12:19.641Z,8.90
2023-05-11T05:14:48.209Z,8.80
2023-05-11T05:17:16.777Z,7.90
2023-05-11T05:19:45.454Z,8.63
2023-05-11T05:22:15.851Z,8.20
2023-05-11T05:24:44.507Z,8.60
2023-05-11T05:27:13.146Z,6.93
2023-05-11T05:29:41.757Z,8.30
2023-05-11T05:32:10.361Z,7.57
2023-05-11T05:34:38.940Z,7.10
2023-05-11T05:37:07.620Z,7.00
2023-05-11T05:39:37.546Z,7.23
2023-05-11T05:42:06.345Z,6.93
2023-05-11T05:44:34.936Z,5.90
2023-05-11T05:47:03.530Z,6.50
2023-05-11T05:49:32.140Z,6.17
2023-05-11T05:52:00.789Z,6.50
2023-05-11T05:54:29.430Z,6.07
2023-05-11T05:56:59.417Z,5.83
2023-05-11T05:59:28.029Z,5.83
2023-05-11T06:01:56.705Z,6.47
2023-05-11T06:04:25.389Z,5.80
2023-05-11T06:06:55.870Z,5.90
2023-05-11T06:09:24.573Z,5.93
2023-05-11T06:11:54.064Z,5.40
2023-05-11T06:14:24.066Z,5.50
2023-05-11T06:16:53.708Z,4.30
2023-05-11T06:19:22.372Z,4.23
2023-05-11T06:21:50.995Z,4.40
2023-05-11T06:24:19.770Z,4.07
2023-05-11T06:26:48.410Z,4.50
2023-05-11T06:29:17.601Z,4.53
2023-05-11T06:31:49.363Z,4.20
2023-05-11T06:34:20.365Z,3.47
2023-05-11T06:36:49.037Z,3.90
2023-05-11T06:39:17.830Z,4.00
2023-05-11T06:41:46.448Z,4.00
2023-05-11T06:44:15.054Z,3.80
2023-05-11T06:46:43.629Z,4.00
2023-05-11T06:49:13.598Z,3.30
2023-05-11T06:51:42.551Z,3.33
2023-05-11T06:54:11.427Z,3.90
2023-05-11T06:56:40.118Z,3.10
2023-05-11T06:59:08.822Z,3.80
2023-05-11T07:01:37.556Z,3.20
2023-05-11T07:04:06.499Z,3.13
2023-05-11T07:06:36.493Z,3.30
2023-05-11T07:09:05.479Z,5.60
2023-05-11T07:11:34.054Z,3.20
2023-05-11T07:14:02.717Z,4.90
2023-05-11T07:16:31.414Z,4.30
2023-05-11T07:19:00.111Z,2.90
2023-05-11T07:21:28.748Z,3.30
2023-05-11T07:23:59.305Z,3.17
2023-05-11T07:26:29.105Z,4.73
2023-05-11T07:28:57.720Z,3.33
2023-05-11T07:31:26.469Z,3.13
2023-05-11T07:33:55.230Z,3.63
2023-05-11T07:36:25.594Z,4.90
2023-05-11T07:38:54.383Z,3.17
2023-05-11T07:41:26.761Z,3.27
2023-05-11T07:43:55.445Z,3.37
2023-05-11T07:46:24.283Z,3.17
2023-05-11T07:49:03.490Z,5.50
2023-05-11T07:51:41.489Z,6.37
2023-05-11T07:54:10.188Z,2.80
2023-05-11T07:56:40.236Z,3.20
2023-05-11T07:59:09.130Z,4.13
2023-05-11T08:01:37.869Z,2.93
2023-05-11T08:04:06.774Z,3.33
2023-05-11T08:06:35.423Z,2.40
2023-05-11T08:09:04.103Z,2.90
2023-05-11T08:11:32.707Z,2.60
2023-05-11T08:14:03.222Z,3.00
2023-05-11T08:16:31.842Z,2.53
2023-05-11T08:19:00.507Z,16.17
2023-05-11T08:21:29.174Z,3.50
2023-05-11T08:23:57.773Z,2.90
2023-05-11T08:26:26.478Z,1.87
2023-05-11T08:28:55.079Z,2.53
2023-05-11T08:31:25.100Z,2.60
2023-05-11T08:33:53.879Z,2.13
2023-05-11T08:36:24.450Z,2.80
2023-05-11T08:38:57.032Z,2.33
2023-05-11T08:41:27.746Z,2.43
2023-05-11T08:43:56.622Z,2.90
2023-05-11T08:46:27.680Z,3.23
2023-05-11T08:48:56.416Z,2.80
2023-05-11T08:51:25.127Z,3.00
2023-05-11T08:53:54.072Z,2.60
2023-05-11T08:56:24.011Z,2.40
2023-05-11T08:58:54.190Z,2.37
2023-05-11T09:01:26.114Z,2.13
2023-05-11T09:03:54.765Z,2.77
2023-05-11T09:06:23.388Z,1.70
2023-05-11T09:08:51.984Z,2.60
2023-05-11T09:11:21.084Z,2.20
2023-05-11T09:13:49.631Z,2.43
2023-05-11T09:16:35.737Z,2.20
2023-05-11T09:19:06.764Z,2.20
2023-05-11T09:21:36.372Z,2.90
2023-05-11T09:24:05.251Z,2.70
2023-05-11T09:26:34.591Z,2.50
2023-05-11T09:29:05.923Z,2.40
2023-05-11T09:31:39.529Z,1.90
2023-05-11T09:34:14.118Z,2.20
2023-05-11T09:36:42.954Z,2.10
2023-05-11T09:41:46.054Z,1.80
2023-05-11T09:44:15.211Z,2.13
2023-05-11T09:46:44.650Z,1.70
2023-05-11T09:49:14.784Z,2.00
2023-05-11T09:51:43.402Z,2.07
2023-05-11T09:54:19.110Z,1.80
2023-05-11T09:56:48.719Z,1.30
2023-05-11T09:59:18.066Z,2.03
2023-05-11T10:01:47.314Z,2.10
2023-05-11T10:04:23.791Z,1.53
2023-05-11T10:06:54.189Z,1.60
2023-05-11T10:09:25.632Z,1.57
2023-05-11T10:11:54.523Z,1.87
2023-05-11T10:14:23.424Z,1.73
2023-05-11T10:16:52.017Z,1.93
2023-05-11T10:19:22.250Z,1.70
2023-05-11T10:21:50.878Z,2.03
2023-05-11T10:24:20.602Z,1.83
2023-05-11T10:26:49.459Z,1.70
2023-05-11T10:29:19.211Z,2.00
2023-05-11T10:31:48.319Z,2.10
2023-05-11T10:34:17.066Z,2.17
2023-05-11T10:36:47.098Z,2.27
2023-05-11T10:39:15.949Z,2.00
2023-05-11T10:41:50.395Z,1.40
2023-05-11T10:44:35.088Z,1.87
2023-05-11T10:47:19.550Z,1.63
2023-05-11T10:50:00.128Z,1.80
2023-05-11T10:52:44.099Z,1.43
2023-05-11T10:55:17.699Z,1.60
2023-05-11T10:57:57.791Z,1.97
2023-05-11T11:00:55.950Z,1.47
2023-05-11T11:03:24.681Z,1.87
2023-05-11T11:05:53.349Z,1.70
2023-05-11T11:08:23.994Z,1.43
2023-05-11T11:10:52.688Z,2.23
2023-05-11T11:13:23.332Z,1.80
2023-05-11T11:16:12.201Z,1.90
2023-05-11T11:18:41.948Z,1.80
2023-05-11T11:21:15.547Z,1.60
2023-05-11T11:23:50.325Z,1.47
2023-05-11T11:26:21.385Z,1.70
2023-05-11T11:29:12.192Z,1.70
2023-05-11T11:31:41.409Z,1.20
2023-05-11T11:34:36.410Z,1.40
2023-05-11T11:37:05.787Z,1.00
2023-05-11T11:40:08.877Z,1.60
2023-05-11T11:42:44.171Z,1.67
2023-05-11T11:45:29.965Z,1.33
2023-05-11T11:48:13.357Z,1.20
2023-05-11T11:50:45.572Z,1.40
2023-05-11T11:53:15.473Z,1.53
2023-05-11T11:55:50.139Z,1.40
2023-05-11T11:58:56.262Z,1.10
2023-05-11T12:01:26.897Z,1.03
2023-05-11T12:04:16.782Z,1.40
2023-05-11T12:06:48.003Z,1.00
2023-05-11T12:09:19.280Z,1.10
2023-05-11T12:11:49.374Z,0.90
2023-05-11T12:14:18.006Z,1.60
2023-05-11T12:17:03.575Z,1.50
2023-05-11T12:19:32.312Z,1.30
2023-05-11T12:22:01.357Z,1.50
2023-05-11T12:24:29.978Z,1.67
2023-05-11T12:27:00.090Z,1.40
2023-05-11T12:29:28.726Z,1.20
2023-05-11T12:31:58.484Z,1.20
2023-05-11T12:34:27.094Z,1.63
2023-05-11T12:37:00.508Z,1.40
2023-05-11T12:39:29.472Z,1.47
2023-05-11T12:41:59.635Z,1.27
2023-05-11T12:44:30.645Z,1.30
2023-05-11T12:46:59.357Z,1.27
2023-05-11T12:49:27.947Z,1.00
2023-05-11T12:52:07.968Z,1.13
2023-05-11T12:54:38.918Z,1.27
2023-05-11T12:57:09.948Z,1.30
2023-05-11T12:59:39.967Z,1.47
2023-05-11T13:02:13.205Z,1.57
2023-05-11T13:04:42.421Z,1.53
2023-05-11T13:07:12.683Z,1.20
2023-05-11T13:09:41.345Z,1.67
2023-05-11T13:12:21.209Z,1.40
2023-05-11T13:14:50.791Z,1.50
2023-05-11T13:17:32.265Z,1.90
2023-05-11T13:20:16.702Z,1.20
2023-05-11T13:22:45.410Z,1.40
2023-05-11T13:25:14.888Z,1.20
2023-05-11T13:27:45.768Z,1.27
2023-05-11T13:30:14.832Z,1.53
2023-05-11T13:32:43.502Z,1.50
2023-05-11T13:35:12.178Z,1.67
2023-05-11T13:37:42.026Z,1.57
2023-05-11T13:40:12.094Z,1.60
2023-05-11T13:42:41.657Z,1.60
2023-05-11T13:45:12.670Z,2.60
2023-05-11T13:47:43.240Z,1.50
2023-05-11T13:50:16.037Z,1.60
2023-05-11T13:52:44.751Z,1.30
2023-05-11T13:55:13.399Z,1.67
2023-05-11T13:57:42.090Z,1.40
2023-05-11T14:00:12.922Z,1.37
2023-05-11T14:02:41.723Z,3.47
2023-05-11T14:05:10.987Z,2.00
2023-05-11T14:07:47.904Z,1.67
2023-05-11T14:10:17.484Z,1.30
2023-05-11T14:12:48.204Z,1.10
2023-05-11T14:15:18.485Z,1.37
2023-05-11T14:17:48.780Z,1.30
2023-05-11T14:20:17.560Z,1.23
2023-05-11T14:22:46.318Z,1.30
2023-05-11T14:25:16.265Z,1.30
2023-05-11T14:27:44.972Z,1.70
2023-05-11T14:30:14.205Z,1.50
2023-05-11T14:32:44.108Z,1.53
2023-05-11T14:35:12.878Z,1.40
2023-05-11T14:37:41.657Z,1.30
2023-05-11T14:40:11.928Z,1.47
2023-05-11T14:42:40.621Z,1.33
2023-05-11T14:45:10.320Z,1.70
2023-05-11T14:47:38.998Z,1.33
2023-05-11T14:50:11.152Z,1.40
2023-05-11T14:52:39.779Z,1.30
2023-05-11T14:55:09.472Z,1.43
2023-05-11T14:57:38.115Z,1.17
2023-05-11T15:00:08.505Z,1.17
2023-05-11T15:02:37.195Z,0.90
2023-05-11T15:05:06.453Z,1.63
2023-05-11T15:07:39.148Z,1.77
2023-05-11T15:10:08.604Z,1.30
2023-05-11T15:12:37.322Z,1.60
2023-05-11T15:15:08.044Z,1.60
2023-05-11T15:17:36.669Z,1.20
2023-05-11T15:20:06.366Z,1.10
2023-05-11T15:22:36.326Z,1.60
2023-05-11T15:25:05.346Z,1.40
2023-05-11T15:27:33.996Z,1.47
2023-05-11T15:30:03.914Z,1.40
2023-05-11T15:32:32.540Z,1.40
2023-05-11T15:35:01.344Z,1.63
2023-05-11T15:37:29.935Z,1.30
2023-05-11T15:40:01.911Z,1.73
2023-05-11T15:42:30.563Z,1.47
2023-05-11T15:44:59.227Z,1.70
2023-05-11T15:47:29.663Z,1.97
2023-05-11T15:50:02.573Z,1.50
2023-05-11T15:52:31.675Z,1.83
2023-05-11T15:55:01.755Z,1.67
2023-05-11T15:57:30.402Z,1.63
2023-05-11T15:59:59.041Z,1.60
2023-05-11T16:02:28.386Z,1.67
2023-05-11T16:04:58.701Z,1.57
2023-05-11T16:07:27.394Z,1.60
2023-05-11T16:09:56.019Z,1.60
2023-05-11T16:12:26.129Z,1.73
2023-05-11T16:14:54.740Z,1.50
2023-05-11T16:17:23.448Z,1.70
2023-05-11T16:19:52.128Z,1.80
2023-05-11T16:22:20.800Z,2.10
2023-05-11T16:24:49.382Z,1.87
2023-05-11T16:27:18.012Z,1.90
2023-05-11T16:29:47.968Z,1.50
2023-05-11T16:32:16.573Z,1.73
2023-05-11T16:34:45.156Z,1.80
2023-05-11T16:37:13.811Z,2.03
2023-05-11T16:39:42.405Z,1.93
2023-05-11T16:42:11.079Z,1.73
2023-05-11T16:44:39.690Z,1.60
2023-05-11T16:47:09.810Z,1.63
2023-05-11T16:49:38.357Z,1.50
2023-05-11T16:52:07.788Z,2.17
2023-05-11T16:54:36.371Z,1.63
2023-05-11T16:57:05.883Z,1.60
2023-05-11T16:59:34.659Z,1.70
2023-05-11T17:02:03.358Z,1.57
2023-05-11T17:04:33.432Z,1.90
2023-05-11T17:07:02.073Z,1.80
2023-05-11T17:09:31.016Z,1.73
2023-05-11T17:11:59.641Z,1.70
2023-05-11T17:14:28.240Z,1.90
2023-05-11T17:16:56.889Z,2.30
2023-05-11T17:19:25.543Z,2.40
2023-05-11T17:21:55.977Z,2.23
2023-05-11T17:24:24.635Z,1.80
2023-05-11T17:26:53.270Z,2.27
2023-05-11T17:29:21.872Z,1.70
2023-05-11T17:31:51.703Z,2.33
2023-05-11T17:34:22.352Z,10.80
2023-05-11T17:36:54.757Z,5.20
2023-05-11T17:39:24.593Z,4.10
2023-05-11T17:41:53.248Z,3.73
2023-05-11T17:44:22.954Z,1.90
2023-05-11T17:46:51.957Z,2.13
2023-05-11T17:49:20.762Z,1.50
2023-05-11T17:51:50.335Z,1.80
2023-05-11T17:54:20.308Z,2.00
2023-05-11T17:56:48.981Z,1.90
2023-05-11T17:59:19.770Z,1.50
2023-05-11T18:01:49.694Z,1.77
2023-05-11T18:04:18.791Z,2.10
2023-05-11T18:06:48.133Z,1.87
2023-05-11T18:09:19.678Z,2.43
2023-05-11T18:11:48.289Z,2.17
2023-05-11T18:14:17.944Z,1.90
2023-05-11T18:16:49.288Z,2.20
2023-05-11T18:19:18.199Z,1.97
2023-05-11T18:21:46.833Z,2.30
2023-05-11T18:24:16.396Z,1.90
2023-05-11T18:26:47.988Z,2.43
2023-05-11T18:29:20.131Z,2.30
2023-05-11T18:31:52.505Z,2.13
2023-05-11T18:34:21.157Z,2.97
2023-05-11T18:36:51.532Z,10.40
2023-05-11T18:39:20.335Z,14.13
2023-05-11T18:41:50.330Z,4.60
2023-05-11T18:44:19.262Z,28.43
2023-05-11T18:46:47.912Z,3.40
2023-05-11T18:49:16.925Z,2.80
2023-05-11T18:51:46.799Z,2.90
2023-05-11T18:54:16.648Z,2.67
2023-05-11T18:56:45.244Z,2.20
2023-05-11T18:59:15.213Z,3.43
2023-05-11T19:01:48.056Z,2.53
2023-05-11T19:04:19.728Z,2.53
2023-05-11T19:06:48.867Z,2.80
2023-05-11T19:09:19.552Z,2.30
2023-05-11T19:11:48.177Z,2.20
2023-05-11T19:14:18.180Z,2.47
2023-05-11T19:16:46.909Z,2.40
2023-05-11T19:19:15.525Z,3.00
2023-05-11T19:21:45.474Z,2.70
2023-05-11T19:24:14.368Z,3.10
2023-05-11T19:26:47.394Z,3.20
2023-05-11T19:29:26.205Z,2.63
2023-05-11T19:31:54.815Z,2.90
2023-05-11T19:34:23.599Z,3.00
2023-05-11T19:36:52.231Z,3.50
2023-05-11T19:39:20.845Z,2.93
2023-05-11T19:41:49.506Z,3.00
2023-05-11T19:44:18.776Z,2.77
2023-05-11T19:46:48.852Z,2.40
2023-05-11T19:49:17.580Z,3.10
2023-05-11T19:51:46.173Z,2.57
2023-05-11T19:54:15.471Z,2.67
2023-05-11T19:56:44.119Z,2.73
2023-05-11T19:59:12.643Z,2.93
2023-05-11T20:01:41.281Z,2.77
2023-05-11T20:04:12.741Z,2.73
2023-05-11T20:06:41.622Z,2.90
2023-05-11T20:09:10.233Z,2.70
2023-05-11T20:11:38.856Z,3.93
2023-05-11T20:14:07.597Z,2.70
2023-05-11T20:16:36.308Z,2.50
2023-05-11T20:19:05.468Z,2.50
2023-05-11T20:21:35.877Z,2.77
2023-05-11T20:24:05.067Z,2.40
2023-05-11T20:26:33.685Z,3.30
2023-05-11T20:29:04.458Z,2.20
2023-05-11T20:31:34.344Z,3.37
2023-05-11T20:36:35.830Z,2.37
2023-05-11T20:39:05.680Z,2.60
2023-05-11T20:41:34.804Z,2.80
2023-05-11T20:44:03.957Z,2.80
2023-05-11T20:46:32.658Z,3.47
2023-05-11T20:49:01.298Z,2.80
2023-05-11T20:51:29.883Z,3.10
2023-05-11T20:53:59.919Z,2.80
2023-05-11T20:56:28.597Z,3.00
2023-05-11T20:58:57.260Z,3.10
2023-05-11T21:01:26.999Z,2.70
2023-05-11T21:03:56.876Z,3.10
2023-05-11T21:06:25.618Z,3.00
2023-05-11T21:08:54.508Z,3.30
2023-05-11T21:11:24.500Z,3.20
2023-05-11T21:13:53.505Z,2.90
2023-05-11T21:16:22.440Z,4.00
2023-05-11T21:18:51.116Z,3.50
2023-05-11T21:21:19.762Z,3.47
2023-05-11T21:23:48.361Z,2.80
2023-05-11T21:26:16.991Z,3.67
2023-05-11T21:28:46.992Z,3.33
2023-05-11T21:31:15.985Z,4.30
2023-05-11T21:33:44.611Z,3.20
2023-05-11T21:36:14.855Z,3.20
2023-05-11T21:38:43.444Z,2.67
2023-05-11T21:41:12.139Z,3.37
2023-05-11T21:43:41.520Z,4.30
2023-05-11T21:46:11.541Z,3.10
2023-05-11T21:48:40.159Z,3.20
2023-05-11T21:51:09.118Z,3.30
2023-05-11T21:53:39.479Z,3.30
2023-05-11T21:56:09.847Z,3.50
2023-05-11T21:58:38.652Z,3.90
2023-05-11T22:01:07.357Z,2.90
2023-05-11T22:03:38.992Z,3.30
2023-05-11T22:06:08.382Z,3.60
2023-05-11T22:08:38.723Z,3.83
2023-05-11T22:11:07.542Z,3.30
2023-05-11T22:13:36.094Z,4.10
2023-05-11T22:16:05.302Z,5.03
2023-05-11T22:18:33.975Z,6.67
2023-05-11T22:21:04.470Z,8.07
2023-05-11T22:23:33.134Z,5.60
2023-05-11T22:26:01.914Z,5.90
2023-05-11T22:28:33.145Z,8.93
2023-05-11T22:31:02.269Z,6.20
2023-05-11T22:33:31.069Z,4.30
2023-05-11T22:35:59.727Z,4.40
2023-05-11T22:38:30.363Z,4.00
2023-05-11T22:40:58.938Z,3.70
2023-05-11T22:43:29.311Z,4.50
2023-05-11T22:45:57.973Z,4.97
2023-05-11T22:48:26.534Z,7.83
2023-05-11T22:50:55.439Z,6.67
2023-05-11T22:53:24.073Z,5.30
2023-05-11T22:55:54.110Z,5.10
2023-05-11T22:58:22.762Z,4.90
2023-05-11T23:00:55.743Z,5.07
2023-05-11T23:03:25.157Z,4.80
2023-05-11T23:05:54.242Z,5.10
2023-05-11T23:08:23.055Z,4.07
2023-05-11T23:10:53.157Z,4.70
2023-05-11T23:13:21.768Z,4.10
2023-05-11T23:15:52.506Z,3.90
2023-05-11T23:18:21.244Z,5.17
2023-05-11T23:20:49.949Z,4.47
2023-05-11T23:23:18.605Z,3.70
2023-05-11T23:25:47.483Z,4.10
2023-05-11T23:28:17.441Z,4.30
2023-05-11T23:30:46.206Z,3.63
2023-05-11T23:33:14.771Z,4.10
2023-05-11T23:35:43.514Z,4.30
2023-05-11T23:38:13.773Z,4.30
2023-05-11T23:40:43.042Z,5.07
2023-05-11T23:43:11.623Z,4.87
2023-05-11T23:45:41.554Z,3.97
2023-05-11T23:48:10.678Z,5.13
2023-05-11T23:50:39.411Z,4.20
2023-05-11T23:53:08.248Z,4.20
2023-05-11T23:55:36.848Z,4.33
2023-05-11T23:58:05.512Z,4.20
